sensor_id;sensor_type;location;lat;lon;timestamp;P1;durP1;ratioP1;P2;durP2;ratioP2
53781;SDS011;39692;53.114;7.060;2023-04-03T00:00:12;1.13;;;0.55;;
53781;SDS011;39692;53.114;7.060;2023-04-03T00:02:38;0.80;;;0.43;;
53781;SDS011;39692;53.114;7.060;2023-04-03T00:05:06;1.38;;;0.60;;
53781;SDS011;39692;53.114;7.060;2023-04-03T00:07:32;1.88;;;0.43;;
53781;SDS011;39692;53.114;7.060;2023-04-03T00:09:58;2.38;;;0.50;;
53781;SDS011;39692;53.114;7.060;2023-04-03T00:12:24;1.20;;;0.43;;
53781;SDS011;39692;53.114;7.060;2023-04-03T00:14:50;1.10;;;0.43;;
53781;SDS011;39692;53.114;7.060;2023-04-03T00:17:16;1.58;;;0.73;;
53781;SDS011;39692;53.114;7.060;2023-04-03T00:19:42;1.75;;;0.90;;
53781;SDS011;39692;53.114;7.060;2023-04-03T00:22:08;2.10;;;0.40;;
53781;SDS011;39692;53.114;7.060;2023-04-03T00:24:34;1.80;;;0.40;;
53781;SDS011;39692;53.114;7.060;2023-04-03T00:27:00;0.22;;;0.20;;
53781;SDS011;39692;53.114;7.060;2023-04-03T00:29:26;0.85;;;0.40;;
53781;SDS011;39692;53.114;7.060;2023-04-03T00:31:52;2.30;;;0.47;;
53781;SDS011;39692;53.114;7.060;2023-04-03T00:34:19;1.30;;;0.70;;
53781;SDS011;39692;53.114;7.060;2023-04-03T00:36:45;0.75;;;0.55;;
53781;SDS011;39692;53.114;7.060;2023-04-03T00:39:11;1.52;;;0.60;;
53781;SDS011;39692;53.114;7.060;2023-04-03T00:41:37;0.98;;;0.90;;
53781;SDS011;39692;53.114;7.060;2023-04-03T00:44:22;1.13;;;0.45;;
53781;SDS011;39692;53.114;7.060;2023-04-03T00:47:09;0.73;;;0.55;;
53781;SDS011;39692;53.114;7.060;2023-04-03T00:49:37;2.25;;;0.90;;
53781;SDS011;39692;53.114;7.060;2023-04-03T00:52:03;1.65;;;0.93;;
53781;SDS011;39692;53.114;7.060;2023-04-03T00:54:31;0.45;;;0.30;;
53781;SDS011;39692;53.114;7.060;2023-04-03T00:56:58;3.30;;;0.65;;
53781;SDS011;39692;53.114;7.060;2023-04-03T00:59:25;0.30;;;0.22;;
53781;SDS011;39692;53.114;7.060;2023-04-03T01:01:53;2.13;;;0.65;;
53781;SDS011;39692;53.114;7.060;2023-04-03T01:04:30;3.63;;;0.90;;
53781;SDS011;39692;53.114;7.060;2023-04-03T01:06:57;0.60;;;0.52;;
53781;SDS011;39692;53.114;7.060;2023-04-03T01:09:24;2.15;;;0.45;;
53781;SDS011;39692;53.114;7.060;2023-04-03T01:11:51;2.00;;;0.57;;
53781;SDS011;39692;53.114;7.060;2023-04-03T01:14:17;1.02;;;0.47;;
53781;SDS011;39692;53.114;7.060;2023-04-03T01:16:51;1.65;;;0.90;;
53781;SDS011;39692;53.114;7.060;2023-04-03T01:19:17;1.65;;;0.52;;
53781;SDS011;39692;53.114;7.060;2023-04-03T01:24:25;2.95;;;0.95;;
53781;SDS011;39692;53.114;7.060;2023-04-03T01:26:53;1.25;;;0.60;;
53781;SDS011;39692;53.114;7.060;2023-04-03T01:29:19;1.50;;;0.90;;
53781;SDS011;39692;53.114;7.060;2023-04-03T01:31:46;1.30;;;0.73;;
53781;SDS011;39692;53.114;7.060;2023-04-03T01:34:13;1.63;;;0.80;;
53781;SDS011;39692;53.114;7.060;2023-04-03T01:36:39;2.88;;;1.00;;
53781;SDS011;39692;53.114;7.060;2023-04-03T01:39:05;1.38;;;0.70;;
53781;SDS011;39692;53.114;7.060;2023-04-03T01:41:31;1.08;;;0.52;;
53781;SDS011;39692;53.114;7.060;2023-04-03T01:43:57;2.63;;;0.93;;
53781;SDS011;39692;53.114;7.060;2023-04-03T01:46:23;1.98;;;0.77;;
53781;SDS011;39692;53.114;7.060;2023-04-03T01:48:49;3.90;;;0.88;;
53781;SDS011;39692;53.114;7.060;2023-04-03T01:51:16;1.52;;;0.85;;
53781;SDS011;39692;53.114;7.060;2023-04-03T01:53:42;1.85;;;0.63;;
53781;SDS011;39692;53.114;7.060;2023-04-03T01:56:08;1.52;;;0.80;;
53781;SDS011;39692;53.114;7.060;2023-04-03T01:58:34;3.55;;;0.90;;
53781;SDS011;39692;53.114;7.060;2023-04-03T02:01:00;0.45;;;0.40;;
53781;SDS011;39692;53.114;7.060;2023-04-03T02:03:27;0.77;;;0.60;;
53781;SDS011;39692;53.114;7.060;2023-04-03T02:05:54;3.53;;;0.88;;
53781;SDS011;39692;53.114;7.060;2023-04-03T02:08:21;1.17;;;0.60;;
53781;SDS011;39692;53.114;7.060;2023-04-03T02:10:47;1.73;;;1.02;;
53781;SDS011;39692;53.114;7.060;2023-04-03T02:13:14;3.65;;;0.80;;
53781;SDS011;39692;53.114;7.060;2023-04-03T02:15:40;3.35;;;0.93;;
53781;SDS011;39692;53.114;7.060;2023-04-03T02:18:06;1.42;;;0.70;;
53781;SDS011;39692;53.114;7.060;2023-04-03T02:20:32;0.85;;;0.77;;
53781;SDS011;39692;53.114;7.060;2023-04-03T02:22:59;0.95;;;0.50;;
53781;SDS011;39692;53.114;7.060;2023-04-03T02:25:26;3.88;;;0.75;;
53781;SDS011;39692;53.114;7.060;2023-04-03T02:27:52;0.88;;;0.68;;
53781;SDS011;39692;53.114;7.060;2023-04-03T02:30:18;1.95;;;1.10;;
53781;SDS011;39692;53.114;7.060;2023-04-03T02:32:45;2.33;;;0.80;;
53781;SDS011;39692;53.114;7.060;2023-04-03T02:35:11;1.40;;;0.68;;
53781;SDS011;39692;53.114;7.060;2023-04-03T02:37:37;3.05;;;1.15;;
53781;SDS011;39692;53.114;7.060;2023-04-03T02:40:04;4.95;;;0.80;;
53781;SDS011;39692;53.114;7.060;2023-04-03T02:42:31;1.08;;;0.60;;
53781;SDS011;39692;53.114;7.060;2023-04-03T02:44:57;3.92;;;0.75;;
53781;SDS011;39692;53.114;7.060;2023-04-03T02:47:25;2.17;;;0.70;;
53781;SDS011;39692;53.114;7.060;2023-04-03T02:49:51;5.38;;;0.93;;
53781;SDS011;39692;53.114;7.060;2023-04-03T02:52:17;0.73;;;0.45;;
53781;SDS011;39692;53.114;7.060;2023-04-03T02:54:44;0.60;;;0.50;;
53781;SDS011;39692;53.114;7.060;2023-04-03T02:57:10;1.73;;;0.98;;
53781;SDS011;39692;53.114;7.060;2023-04-03T02:59:36;1.25;;;0.57;;
53781;SDS011;39692;53.114;7.060;2023-04-03T03:02:05;3.50;;;0.70;;
53781;SDS011;39692;53.114;7.060;2023-04-03T03:04:32;5.68;;;1.17;;
53781;SDS011;39692;53.114;7.060;2023-04-03T03:06:58;3.22;;;0.82;;
53781;SDS011;39692;53.114;7.060;2023-04-03T03:09:24;2.10;;;0.95;;
53781;SDS011;39692;53.114;7.060;2023-04-03T03:11:51;1.00;;;0.68;;
53781;SDS011;39692;53.114;7.060;2023-04-03T03:14:17;1.85;;;0.93;;
53781;SDS011;39692;53.114;7.060;2023-04-03T03:16:43;5.75;;;1.35;;
53781;SDS011;39692;53.114;7.060;2023-04-03T03:19:10;2.45;;;0.70;;
53781;SDS011;39692;53.114;7.060;2023-04-03T03:21:36;3.00;;;1.10;;
53781;SDS011;39692;53.114;7.060;2023-04-03T03:24:02;3.88;;;1.05;;
53781;SDS011;39692;53.114;7.060;2023-04-03T03:26:28;2.80;;;0.82;;
53781;SDS011;39692;53.114;7.060;2023-04-03T03:28:55;2.20;;;1.15;;
53781;SDS011;39692;53.114;7.060;2023-04-03T03:31:21;3.42;;;1.13;;
53781;SDS011;39692;53.114;7.060;2023-04-03T03:33:47;1.58;;;0.80;;
53781;SDS011;39692;53.114;7.060;2023-04-03T03:36:13;2.38;;;0.88;;
53781;SDS011;39692;53.114;7.060;2023-04-03T03:38:39;1.08;;;0.63;;
53781;SDS011;39692;53.114;7.060;2023-04-03T03:41:05;2.92;;;1.10;;
53781;SDS011;39692;53.114;7.060;2023-04-03T03:43:31;2.15;;;0.85;;
53781;SDS011;39692;53.114;7.060;2023-04-03T03:45:58;5.40;;;1.35;;
53781;SDS011;39692;53.114;7.060;2023-04-03T03:48:24;3.92;;;1.17;;
53781;SDS011;39692;53.114;7.060;2023-04-03T03:50:50;1.08;;;0.68;;
53781;SDS011;39692;53.114;7.060;2023-04-03T03:53:16;1.27;;;0.73;;
53781;SDS011;39692;53.114;7.060;2023-04-03T03:55:43;3.42;;;1.00;;
53781;SDS011;39692;53.114;7.060;2023-04-03T03:58:09;2.60;;;0.80;;
53781;SDS011;39692;53.114;7.060;2023-04-03T04:00:35;2.05;;;0.77;;
53781;SDS011;39692;53.114;7.060;2023-04-03T04:03:01;2.33;;;0.90;;
53781;SDS011;39692;53.114;7.060;2023-04-03T04:05:27;1.23;;;0.65;;
53781;SDS011;39692;53.114;7.060;2023-04-03T04:07:54;1.83;;;1.20;;
53781;SDS011;39692;53.114;7.060;2023-04-03T04:10:20;3.45;;;1.02;;
53781;SDS011;39692;53.114;7.060;2023-04-03T04:12:46;3.22;;;0.85;;
53781;SDS011;39692;53.114;7.060;2023-04-03T04:15:14;3.15;;;1.38;;
53781;SDS011;39692;53.114;7.060;2023-04-03T04:17:40;4.72;;;0.93;;
53781;SDS011;39692;53.114;7.060;2023-04-03T04:20:06;2.50;;;1.02;;
53781;SDS011;39692;53.114;7.060;2023-04-03T04:22:32;1.88;;;0.88;;
53781;SDS011;39692;53.114;7.060;2023-04-03T04:24:58;2.50;;;1.33;;
53781;SDS011;39692;53.114;7.060;2023-04-03T04:27:24;2.28;;;0.82;;
53781;SDS011;39692;53.114;7.060;2023-04-03T04:29:50;4.82;;;1.27;;
53781;SDS011;39692;53.114;7.060;2023-04-03T04:32:16;6.43;;;1.27;;
53781;SDS011;39692;53.114;7.060;2023-04-03T04:34:42;6.57;;;1.15;;
53781;SDS011;39692;53.114;7.060;2023-04-03T04:37:08;2.25;;;1.00;;
53781;SDS011;39692;53.114;7.060;2023-04-03T04:39:34;4.35;;;1.20;;
53781;SDS011;39692;53.114;7.060;2023-04-03T04:42:00;1.88;;;1.10;;
53781;SDS011;39692;53.114;7.060;2023-04-03T04:44:27;2.10;;;1.35;;
53781;SDS011;39692;53.114;7.060;2023-04-03T04:46:53;3.55;;;1.13;;
53781;SDS011;39692;53.114;7.060;2023-04-03T04:49:19;5.15;;;1.25;;
53781;SDS011;39692;53.114;7.060;2023-04-03T04:51:45;1.83;;;1.00;;
53781;SDS011;39692;53.114;7.060;2023-04-03T04:54:11;5.97;;;1.63;;
53781;SDS011;39692;53.114;7.060;2023-04-03T04:56:37;1.88;;;0.88;;
53781;SDS011;39692;53.114;7.060;2023-04-03T04:59:03;1.88;;;0.90;;
53781;SDS011;39692;53.114;7.060;2023-04-03T05:01:29;2.20;;;0.95;;
53781;SDS011;39692;53.114;7.060;2023-04-03T05:03:55;2.47;;;0.93;;
53781;SDS011;39692;53.114;7.060;2023-04-03T05:06:21;3.10;;;1.25;;
53781;SDS011;39692;53.114;7.060;2023-04-03T05:08:48;1.85;;;0.70;;
53781;SDS011;39692;53.114;7.060;2023-04-03T05:11:14;2.75;;;1.05;;
53781;SDS011;39692;53.114;7.060;2023-04-03T05:13:40;3.15;;;1.63;;
53781;SDS011;39692;53.114;7.060;2023-04-03T05:16:06;3.03;;;0.95;;
53781;SDS011;39692;53.114;7.060;2023-04-03T05:18:32;1.20;;;0.80;;
53781;SDS011;39692;53.114;7.060;2023-04-03T05:20:58;1.95;;;1.02;;
53781;SDS011;39692;53.114;7.060;2023-04-03T05:23:24;3.22;;;1.10;;
53781;SDS011;39692;53.114;7.060;2023-04-03T05:25:50;4.97;;;1.13;;
53781;SDS011;39692;53.114;7.060;2023-04-03T05:28:16;2.10;;;0.80;;
53781;SDS011;39692;53.114;7.060;2023-04-03T05:30:42;4.40;;;1.75;;
53781;SDS011;39692;53.114;7.060;2023-04-03T05:33:08;2.63;;;1.08;;
53781;SDS011;39692;53.114;7.060;2023-04-03T05:35:35;1.38;;;0.93;;
53781;SDS011;39692;53.114;7.060;2023-04-03T05:38:04;1.98;;;1.20;;
53781;SDS011;39692;53.114;7.060;2023-04-03T05:40:30;2.78;;;1.13;;
53781;SDS011;39692;53.114;7.060;2023-04-03T05:42:56;2.33;;;1.08;;
53781;SDS011;39692;53.114;7.060;2023-04-03T05:45:22;2.33;;;1.50;;
53781;SDS011;39692;53.114;7.060;2023-04-03T05:47:48;3.92;;;1.27;;
53781;SDS011;39692;53.114;7.060;2023-04-03T05:50:14;3.67;;;1.27;;
53781;SDS011;39692;53.114;7.060;2023-04-03T05:52:42;3.78;;;1.20;;
53781;SDS011;39692;53.114;7.060;2023-04-03T05:55:09;2.67;;;1.10;;
53781;SDS011;39692;53.114;7.060;2023-04-03T05:57:35;2.50;;;1.20;;
53781;SDS011;39692;53.114;7.060;2023-04-03T06:00:03;2.60;;;1.25;;
53781;SDS011;39692;53.114;7.060;2023-04-03T06:02:30;3.20;;;1.45;;
53781;SDS011;39692;53.114;7.060;2023-04-03T06:04:56;3.88;;;1.40;;
53781;SDS011;39692;53.114;7.060;2023-04-03T06:07:23;2.95;;;1.40;;
53781;SDS011;39692;53.114;7.060;2023-04-03T06:09:53;5.90;;;1.20;;
53781;SDS011;39692;53.114;7.060;2023-04-03T06:12:19;5.47;;;1.42;;
53781;SDS011;39692;53.114;7.060;2023-04-03T06:14:47;3.75;;;1.30;;
53781;SDS011;39692;53.114;7.060;2023-04-03T06:17:14;3.88;;;1.00;;
53781;SDS011;39692;53.114;7.060;2023-04-03T06:19:40;4.00;;;1.38;;
53781;SDS011;39692;53.114;7.060;2023-04-03T06:22:07;9.52;;;1.33;;
53781;SDS011;39692;53.114;7.060;2023-04-03T06:24:33;2.08;;;1.20;;
53781;SDS011;39692;53.114;7.060;2023-04-03T06:27:00;3.85;;;1.02;;
53781;SDS011;39692;53.114;7.060;2023-04-03T06:29:26;5.82;;;2.03;;
53781;SDS011;39692;53.114;7.060;2023-04-03T06:31:52;3.05;;;1.52;;
53781;SDS011;39692;53.114;7.060;2023-04-03T06:34:18;3.10;;;1.58;;
53781;SDS011;39692;53.114;7.060;2023-04-03T06:36:45;5.22;;;1.75;;
53781;SDS011;39692;53.114;7.060;2023-04-03T06:39:15;5.65;;;1.52;;
53781;SDS011;39692;53.114;7.060;2023-04-03T06:41:42;8.13;;;1.70;;
53781;SDS011;39692;53.114;7.060;2023-04-03T06:44:08;2.35;;;1.35;;
53781;SDS011;39692;53.114;7.060;2023-04-03T06:46:36;3.72;;;1.60;;
53781;SDS011;39692;53.114;7.060;2023-04-03T06:49:02;3.17;;;1.33;;
53781;SDS011;39692;53.114;7.060;2023-04-03T06:51:29;3.47;;;1.60;;
53781;SDS011;39692;53.114;7.060;2023-04-03T06:53:57;8.07;;;1.88;;
53781;SDS011;39692;53.114;7.060;2023-04-03T06:56:24;4.88;;;1.98;;
53781;SDS011;39692;53.114;7.060;2023-04-03T06:58:51;5.22;;;2.00;;
53781;SDS011;39692;53.114;7.060;2023-04-03T07:01:19;5.32;;;1.70;;
53781;SDS011;39692;53.114;7.060;2023-04-03T07:03:46;5.35;;;2.25;;
53781;SDS011;39692;53.114;7.060;2023-04-03T07:06:13;4.40;;;2.03;;
53781;SDS011;39692;53.114;7.060;2023-04-03T07:08:40;4.05;;;2.10;;
53781;SDS011;39692;53.114;7.060;2023-04-03T07:11:07;7.03;;;2.40;;
53781;SDS011;39692;53.114;7.060;2023-04-03T07:13:33;5.60;;;3.08;;
53781;SDS011;39692;53.114;7.060;2023-04-03T07:15:59;10.40;;;3.28;;
53781;SDS011;39692;53.114;7.060;2023-04-03T07:18:26;6.82;;;2.55;;
53781;SDS011;39692;53.114;7.060;2023-04-03T07:20:52;4.60;;;2.72;;
53781;SDS011;39692;53.114;7.060;2023-04-03T07:23:18;6.68;;;3.05;;
53781;SDS011;39692;53.114;7.060;2023-04-03T07:25:45;5.97;;;2.55;;
53781;SDS011;39692;53.114;7.060;2023-04-03T07:28:11;4.22;;;2.38;;
53781;SDS011;39692;53.114;7.060;2023-04-03T07:30:44;7.25;;;2.70;;
53781;SDS011;39692;53.114;7.060;2023-04-03T07:33:11;4.68;;;2.38;;
53781;SDS011;39692;53.114;7.060;2023-04-03T07:35:38;3.63;;;2.25;;
53781;SDS011;39692;53.114;7.060;2023-04-03T07:38:04;5.63;;;2.45;;
53781;SDS011;39692;53.114;7.060;2023-04-03T07:40:31;4.50;;;2.45;;
53781;SDS011;39692;53.114;7.060;2023-04-03T07:42:57;5.50;;;2.72;;
53781;SDS011;39692;53.114;7.060;2023-04-03T07:45:23;7.40;;;3.17;;
53781;SDS011;39692;53.114;7.060;2023-04-03T07:47:50;6.00;;;2.50;;
53781;SDS011;39692;53.114;7.060;2023-04-03T07:50:16;5.35;;;2.65;;
53781;SDS011;39692;53.114;7.060;2023-04-03T07:52:42;6.60;;;2.40;;
53781;SDS011;39692;53.114;7.060;2023-04-03T07:55:08;7.07;;;2.97;;
53781;SDS011;39692;53.114;7.060;2023-04-03T07:57:35;5.85;;;2.88;;
53781;SDS011;39692;53.114;7.060;2023-04-03T08:00:02;6.47;;;2.58;;
53781;SDS011;39692;53.114;7.060;2023-04-03T08:02:28;7.20;;;2.90;;
53781;SDS011;39692;53.114;7.060;2023-04-03T08:04:56;4.38;;;2.45;;
53781;SDS011;39692;53.114;7.060;2023-04-03T08:07:23;5.00;;;2.05;;
53781;SDS011;39692;53.114;7.060;2023-04-03T08:09:49;4.32;;;1.77;;
53781;SDS011;39692;53.114;7.060;2023-04-03T08:12:15;7.07;;;2.10;;
53781;SDS011;39692;53.114;7.060;2023-04-03T08:14:41;3.83;;;1.60;;
53781;SDS011;39692;53.114;7.060;2023-04-03T08:17:07;4.90;;;1.65;;
53781;SDS011;39692;53.114;7.060;2023-04-03T08:19:36;6.25;;;1.60;;
53781;SDS011;39692;53.114;7.060;2023-04-03T08:22:03;2.90;;;1.42;;
53781;SDS011;39692;53.114;7.060;2023-04-03T08:24:30;3.35;;;1.55;;
53781;SDS011;39692;53.114;7.060;2023-04-03T08:26:56;4.50;;;2.00;;
53781;SDS011;39692;53.114;7.060;2023-04-03T08:29:23;4.32;;;1.73;;
53781;SDS011;39692;53.114;7.060;2023-04-03T08:31:49;3.40;;;1.52;;
53781;SDS011;39692;53.114;7.060;2023-04-03T08:34:16;3.42;;;1.67;;
53781;SDS011;39692;53.114;7.060;2023-04-03T08:36:44;4.38;;;1.80;;
53781;SDS011;39692;53.114;7.060;2023-04-03T08:39:11;3.28;;;1.60;;
53781;SDS011;39692;53.114;7.060;2023-04-03T08:41:41;4.10;;;1.70;;
53781;SDS011;39692;53.114;7.060;2023-04-03T08:51:58;3.47;;;1.67;;
53781;SDS011;39692;53.114;7.060;2023-04-03T08:54:30;3.28;;;1.60;;
53781;SDS011;39692;53.114;7.060;2023-04-03T08:56:56;3.55;;;1.42;;
53781;SDS011;39692;53.114;7.060;2023-04-03T08:59:27;4.97;;;1.80;;
53781;SDS011;39692;53.114;7.060;2023-04-03T09:01:54;3.38;;;1.40;;
53781;SDS011;39692;53.114;7.060;2023-04-03T09:04:21;2.45;;;1.10;;
53781;SDS011;39692;53.114;7.060;2023-04-03T09:06:52;2.92;;;1.20;;
53781;SDS011;39692;53.114;7.060;2023-04-03T09:14:26;3.50;;;1.55;;
53781;SDS011;39692;53.114;7.060;2023-04-03T09:21:58;2.88;;;1.25;;
53781;SDS011;39692;53.114;7.060;2023-04-03T09:24:27;4.82;;;1.45;;
53781;SDS011;39692;53.114;7.060;2023-04-03T09:27:04;3.28;;;1.50;;
53781;SDS011;39692;53.114;7.060;2023-04-03T09:29:31;3.70;;;1.30;;
53781;SDS011;39692;53.114;7.060;2023-04-03T09:32:02;3.78;;;1.70;;
53781;SDS011;39692;53.114;7.060;2023-04-03T09:34:36;3.00;;;1.10;;
53781;SDS011;39692;53.114;7.060;2023-04-03T09:37:04;2.65;;;1.30;;
53781;SDS011;39692;53.114;7.060;2023-04-03T09:39:50;3.22;;;1.20;;
53781;SDS011;39692;53.114;7.060;2023-04-03T09:42:18;3.05;;;1.10;;
53781;SDS011;39692;53.114;7.060;2023-04-03T09:44:53;3.47;;;1.20;;
53781;SDS011;39692;53.114;7.060;2023-04-03T09:49:45;3.47;;;1.38;;
53781;SDS011;39692;53.114;7.060;2023-04-03T09:52:18;3.15;;;1.00;;
53781;SDS011;39692;53.114;7.060;2023-04-03T09:54:45;4.15;;;1.30;;
53781;SDS011;39692;53.114;7.060;2023-04-03T09:57:14;2.80;;;1.25;;
53781;SDS011;39692;53.114;7.060;2023-04-03T09:59:56;2.30;;;1.00;;
53781;SDS011;39692;53.114;7.060;2023-04-03T10:02:28;4.65;;;1.10;;
53781;SDS011;39692;53.114;7.060;2023-04-03T10:04:55;2.70;;;1.38;;
53781;SDS011;39692;53.114;7.060;2023-04-03T10:09:56;1.83;;;0.80;;
53781;SDS011;39692;53.114;7.060;2023-04-03T10:12:22;2.08;;;0.73;;
53781;SDS011;39692;53.114;7.060;2023-04-03T10:19:58;2.03;;;0.80;;
53781;SDS011;39692;53.114;7.060;2023-04-03T10:22:36;2.63;;;0.93;;
53781;SDS011;39692;53.114;7.060;2023-04-03T10:25:28;2.45;;;1.00;;
53781;SDS011;39692;53.114;7.060;2023-04-03T10:28:00;3.45;;;1.02;;
53781;SDS011;39692;53.114;7.060;2023-04-03T10:30:29;3.25;;;0.90;;
53781;SDS011;39692;53.114;7.060;2023-04-03T10:43:11;2.45;;;0.85;;
53781;SDS011;39692;53.114;7.060;2023-04-03T10:48:07;2.60;;;1.13;;
53781;SDS011;39692;53.114;7.060;2023-04-03T10:55:55;1.70;;;0.85;;
53781;SDS011;39692;53.114;7.060;2023-04-03T10:58:25;2.15;;;0.90;;
53781;SDS011;39692;53.114;7.060;2023-04-03T11:00:54;3.63;;;1.40;;
53781;SDS011;39692;53.114;7.060;2023-04-03T11:03:30;2.58;;;1.20;;
53781;SDS011;39692;53.114;7.060;2023-04-03T11:05:59;3.80;;;1.30;;
53781;SDS011;39692;53.114;7.060;2023-04-03T11:11:12;3.08;;;1.83;;
53781;SDS011;39692;53.114;7.060;2023-04-03T11:13:41;4.35;;;1.60;;
53781;SDS011;39692;53.114;7.060;2023-04-03T11:16:09;3.05;;;1.50;;
53781;SDS011;39692;53.114;7.060;2023-04-03T11:18:43;5.25;;;1.65;;
53781;SDS011;39692;53.114;7.060;2023-04-03T11:21:29;3.22;;;1.27;;
53781;SDS011;39692;53.114;7.060;2023-04-03T11:23:57;2.47;;;1.13;;
53781;SDS011;39692;53.114;7.060;2023-04-03T11:26:26;4.15;;;1.30;;
53781;SDS011;39692;53.114;7.060;2023-04-03T11:28:56;4.07;;;2.00;;
53781;SDS011;39692;53.114;7.060;2023-04-03T11:33:55;4.05;;;1.25;;
53781;SDS011;39692;53.114;7.060;2023-04-03T11:36:25;2.80;;;1.10;;
53781;SDS011;39692;53.114;7.060;2023-04-03T11:38:53;3.20;;;1.30;;
53781;SDS011;39692;53.114;7.060;2023-04-03T11:41:38;2.70;;;1.13;;
53781;SDS011;39692;53.114;7.060;2023-04-03T11:44:05;2.28;;;0.98;;
53781;SDS011;39692;53.114;7.060;2023-04-03T11:57:22;2.60;;;0.98;;
53781;SDS011;39692;53.114;7.060;2023-04-03T11:59:48;3.50;;;0.98;;
53781;SDS011;39692;53.114;7.060;2023-04-03T12:08:15;4.38;;;1.50;;
53781;SDS011;39692;53.114;7.060;2023-04-03T12:10:41;2.35;;;1.08;;
53781;SDS011;39692;53.114;7.060;2023-04-03T12:13:13;2.58;;;1.13;;
53781;SDS011;39692;53.114;7.060;2023-04-03T12:15:44;3.90;;;1.10;;
53781;SDS011;39692;53.114;7.060;2023-04-03T12:23:27;2.30;;;1.15;;
53781;SDS011;39692;53.114;7.060;2023-04-03T12:25:59;2.60;;;1.00;;
53781;SDS011;39692;53.114;7.060;2023-04-03T12:28:26;2.60;;;1.08;;
53781;SDS011;39692;53.114;7.060;2023-04-03T12:30:53;3.28;;;1.10;;
53781;SDS011;39692;53.114;7.060;2023-04-03T12:46:15;2.55;;;0.88;;
53781;SDS011;39692;53.114;7.060;2023-04-03T12:48:58;2.75;;;0.93;;
53781;SDS011;39692;53.114;7.060;2023-04-03T12:51:37;2.75;;;0.88;;
53781;SDS011;39692;53.114;7.060;2023-04-03T12:54:13;2.75;;;0.70;;
53781;SDS011;39692;53.114;7.060;2023-04-03T12:56:40;1.83;;;0.88;;
53781;SDS011;39692;53.114;7.060;2023-04-03T12:59:14;1.98;;;1.08;;
53781;SDS011;39692;53.114;7.060;2023-04-03T13:01:41;2.30;;;1.20;;
53781;SDS011;39692;53.114;7.060;2023-04-03T13:04:07;2.30;;;0.70;;
53781;SDS011;39692;53.114;7.060;2023-04-03T13:06:40;2.35;;;0.90;;
53781;SDS011;39692;53.114;7.060;2023-04-03T13:09:14;2.75;;;1.30;;
53781;SDS011;39692;53.114;7.060;2023-04-03T13:11:43;2.30;;;0.85;;
53781;SDS011;39692;53.114;7.060;2023-04-03T13:14:20;2.85;;;1.15;;
53781;SDS011;39692;53.114;7.060;2023-04-03T13:16:54;2.00;;;1.05;;
53781;SDS011;39692;53.114;7.060;2023-04-03T13:19:21;3.47;;;1.00;;
53781;SDS011;39692;53.114;7.060;2023-04-03T13:21:48;2.83;;;1.00;;
53781;SDS011;39692;53.114;7.060;2023-04-03T13:24:16;1.88;;;0.85;;
53781;SDS011;39692;53.114;7.060;2023-04-03T13:26:42;3.15;;;1.05;;
53781;SDS011;39692;53.114;7.060;2023-04-03T13:29:25;2.10;;;0.77;;
53781;SDS011;39692;53.114;7.060;2023-04-03T13:31:53;2.13;;;0.83;;
53781;SDS011;39692;53.114;7.060;2023-04-03T13:34:21;1.63;;;0.70;;
53781;SDS011;39692;53.114;7.060;2023-04-03T13:39:24;1.90;;;0.70;;
53781;SDS011;39692;53.114;7.060;2023-04-03T13:41:52;1.80;;;0.68;;
53781;SDS011;39692;53.114;7.060;2023-04-03T13:46:47;3.00;;;0.68;;
53781;SDS011;39692;53.114;7.060;2023-04-03T13:49:18;2.03;;;0.70;;
53781;SDS011;39692;53.114;7.060;2023-04-03T13:51:45;4.03;;;1.05;;
53781;SDS011;39692;53.114;7.060;2023-04-03T13:56:57;1.90;;;0.70;;
53781;SDS011;39692;53.114;7.060;2023-04-03T13:59:24;2.53;;;0.70;;
53781;SDS011;39692;53.114;7.060;2023-04-03T14:01:55;1.80;;;0.95;;
53781;SDS011;39692;53.114;7.060;2023-04-03T14:04:22;2.13;;;0.80;;
53781;SDS011;39692;53.114;7.060;2023-04-03T14:06:50;2.58;;;0.75;;
53781;SDS011;39692;53.114;7.060;2023-04-03T14:09:17;2.63;;;0.75;;
53781;SDS011;39692;53.114;7.060;2023-04-03T14:11:43;1.35;;;0.75;;
53781;SDS011;39692;53.114;7.060;2023-04-03T14:14:15;1.80;;;0.60;;
53781;SDS011;39692;53.114;7.060;2023-04-03T14:16:43;1.05;;;0.63;;
53781;SDS011;39692;53.114;7.060;2023-04-03T14:19:23;4.25;;;0.55;;
53781;SDS011;39692;53.114;7.060;2023-04-03T14:21:50;1.13;;;0.45;;
53781;SDS011;39692;53.114;7.060;2023-04-03T14:24:17;1.60;;;0.60;;
53781;SDS011;39692;53.114;7.060;2023-04-03T14:26:44;1.38;;;0.60;;
53781;SDS011;39692;53.114;7.060;2023-04-03T14:29:11;1.88;;;0.60;;
53781;SDS011;39692;53.114;7.060;2023-04-03T14:31:37;1.73;;;0.40;;
53781;SDS011;39692;53.114;7.060;2023-04-03T14:34:03;1.95;;;0.75;;
53781;SDS011;39692;53.114;7.060;2023-04-03T14:36:30;1.90;;;0.70;;
53781;SDS011;39692;53.114;7.060;2023-04-03T14:38:56;1.05;;;0.40;;
53781;SDS011;39692;53.114;7.060;2023-04-03T14:41:24;3.55;;;0.50;;
53781;SDS011;39692;53.114;7.060;2023-04-03T14:43:51;1.75;;;0.70;;
53781;SDS011;39692;53.114;7.060;2023-04-03T14:46:22;1.08;;;0.60;;
53781;SDS011;39692;53.114;7.060;2023-04-03T14:48:49;1.95;;;1.05;;
53781;SDS011;39692;53.114;7.060;2023-04-03T14:51:15;1.20;;;0.60;;
53781;SDS011;39692;53.114;7.060;2023-04-03T14:53:42;4.75;;;0.93;;
53781;SDS011;39692;53.114;7.060;2023-04-03T14:56:17;1.33;;;0.60;;
53781;SDS011;39692;53.114;7.060;2023-04-03T14:58:43;3.92;;;1.25;;
53781;SDS011;39692;53.114;7.060;2023-04-03T15:01:13;3.63;;;0.63;;
53781;SDS011;39692;53.114;7.060;2023-04-03T15:03:39;1.40;;;0.57;;
53781;SDS011;39692;53.114;7.060;2023-04-03T15:06:05;1.17;;;0.60;;
53781;SDS011;39692;53.114;7.060;2023-04-03T15:08:31;1.38;;;0.57;;
53781;SDS011;39692;53.114;7.060;2023-04-03T15:10:58;3.35;;;0.70;;
53781;SDS011;39692;53.114;7.060;2023-04-03T15:13:25;1.63;;;0.70;;
53781;SDS011;39692;53.114;7.060;2023-04-03T15:15:51;2.03;;;0.73;;
53781;SDS011;39692;53.114;7.060;2023-04-03T15:18:27;1.10;;;0.40;;
53781;SDS011;39692;53.114;7.060;2023-04-03T15:20:55;1.25;;;0.50;;
53781;SDS011;39692;53.114;7.060;2023-04-03T15:23:21;1.48;;;0.73;;
53781;SDS011;39692;53.114;7.060;2023-04-03T15:25:51;2.80;;;1.42;;
53781;SDS011;39692;53.114;7.060;2023-04-03T15:28:19;0.88;;;0.43;;
53781;SDS011;39692;53.114;7.060;2023-04-03T15:30:47;1.38;;;0.50;;
53781;SDS011;39692;53.114;7.060;2023-04-03T15:33:14;2.53;;;0.70;;
53781;SDS011;39692;53.114;7.060;2023-04-03T15:35:41;1.55;;;0.60;;
53781;SDS011;39692;53.114;7.060;2023-04-03T15:38:07;1.63;;;0.75;;
53781;SDS011;39692;53.114;7.060;2023-04-03T15:40:33;2.72;;;0.77;;
53781;SDS011;39692;53.114;7.060;2023-04-03T15:42:59;1.20;;;0.63;;
53781;SDS011;39692;53.114;7.060;2023-04-03T15:45:27;1.73;;;0.60;;
53781;SDS011;39692;53.114;7.060;2023-04-03T15:47:54;2.22;;;0.80;;
53781;SDS011;39692;53.114;7.060;2023-04-03T15:50:20;2.60;;;0.63;;
53781;SDS011;39692;53.114;7.060;2023-04-03T15:52:49;1.73;;;0.70;;
53781;SDS011;39692;53.114;7.060;2023-04-03T15:55:19;1.20;;;0.43;;
53781;SDS011;39692;53.114;7.060;2023-04-03T15:57:45;1.48;;;0.95;;
53781;SDS011;39692;53.114;7.060;2023-04-03T16:00:11;1.25;;;0.60;;
53781;SDS011;39692;53.114;7.060;2023-04-03T16:02:38;1.55;;;0.60;;
53781;SDS011;39692;53.114;7.060;2023-04-03T16:05:04;1.90;;;0.57;;
53781;SDS011;39692;53.114;7.060;2023-04-03T16:07:30;1.98;;;0.80;;
53781;SDS011;39692;53.114;7.060;2023-04-03T16:09:56;1.65;;;0.65;;
53781;SDS011;39692;53.114;7.060;2023-04-03T16:12:22;1.88;;;0.60;;
53781;SDS011;39692;53.114;7.060;2023-04-03T16:14:49;2.15;;;1.00;;
53781;SDS011;39692;53.114;7.060;2023-04-03T16:17:15;3.05;;;1.58;;
53781;SDS011;39692;53.114;7.060;2023-04-03T16:19:41;1.88;;;0.70;;
53781;SDS011;39692;53.114;7.060;2023-04-03T16:22:07;3.85;;;0.75;;
53781;SDS011;39692;53.114;7.060;2023-04-03T16:24:33;1.70;;;0.57;;
53781;SDS011;39692;53.114;7.060;2023-04-03T16:27:00;2.08;;;0.82;;